Terminal Aerodrome Forecast
Issued by NWS

Home | Current Version | Previous Version | Text Only | Print | Product List | Glossary On
Versions: 1 2 3 4 5 6 7 8 9 10 11 12 13
000
FTAK31 PAFA 281740
TAFAUN
TAF
PAUN 281740Z 2818/2918 23014KT P6SM FEW011 BKN017 OVC080
     FM290900 27008KT 4SM BR SCT010 BKN015
     FM291400 22008KT 6SM -RA BR OVC015
     FM291700 22013KT 4SM -RA BR OVC015=

USA.gov is the U.S. government's official web portal to all federal, state and local government web resources and services.